Berlin Center, Ohio
Current Conditions -  °F | °C
As of 4:21 AM on Saturday 22 Nov 2014 (Local Time) from KPOV Reporting Station
Clear Clear  
Wind Chill: 19°   Ceiling: Unl
Heat Index: 19°   Visibility: 10mi
Dew Point:   Wind: 3mph
Humidity: 59%   Direction: 170°S
Pressure: 30.31"   Gusts: NA
Location:  41.02°N, 80.95°W
Report Text: KPOV 220921Z AUTO 17003KT 10SM CLR M07/M14 A3031 RMK AO2 T10721140
Loading
Personal Weather Stations






























Interactive Weather Map New forecast layout! Learn more

10-Day Weather Forecast

Advertisements
Track Severe Weather on mobile